createdAt,value
2019-02-26T00:01:55.143Z,8.70
2019-02-26T00:04:27.280Z,8.20
2019-02-26T00:06:58.030Z,8.03
2019-02-26T00:09:30.506Z,8.60
2019-02-26T00:12:00.083Z,8.33
2019-02-26T00:14:30.407Z,8.83
2019-02-26T00:16:59.709Z,7.13
2019-02-26T00:19:28.942Z,7.80
2019-02-26T00:21:58.143Z,8.07
2019-02-26T00:24:30.570Z,8.40
2019-02-26T00:26:59.327Z,8.10
2019-02-26T00:29:29.923Z,8.57
2019-02-26T00:32:00.111Z,8.20
2019-02-26T00:34:30.525Z,8.27
2019-02-26T00:37:01.785Z,8.13
2019-02-26T00:39:31.999Z,8.40
2019-02-26T00:42:02.747Z,8.00
2019-02-26T00:44:35.257Z,8.90
2019-02-26T00:47:06.311Z,7.87
2019-02-26T00:49:35.983Z,9.23
2019-02-26T00:52:06.403Z,8.20
2019-02-26T00:54:37.441Z,8.50
2019-02-26T00:57:08.702Z,8.10
2019-02-26T00:59:38.791Z,8.13
2019-02-26T01:02:09.754Z,7.37
2019-02-26T01:04:41.378Z,7.33
2019-02-26T01:07:11.250Z,7.13
2019-02-26T01:09:41.137Z,7.27
2019-02-26T01:12:11.809Z,6.93
2019-02-26T01:14:41.844Z,7.20
2019-02-26T01:17:14.865Z,6.60
2019-02-26T01:19:44.278Z,7.83
2019-02-26T01:22:14.221Z,7.17
2019-02-26T01:24:44.028Z,6.47
2019-02-26T01:27:14.177Z,5.97
2019-02-26T01:29:44.533Z,5.90
2019-02-26T01:32:17.560Z,5.50
2019-02-26T01:34:47.817Z,6.33
2019-02-26T01:37:17.977Z,5.67
2019-02-26T01:39:50.063Z,6.03
2019-02-26T01:42:24.254Z,5.60
2019-02-26T01:44:50.969Z,4.97
2019-02-26T01:47:21.877Z,5.53
2019-02-26T01:49:52.366Z,5.33
2019-02-26T01:52:21.818Z,5.30
2019-02-26T01:54:51.754Z,5.47
2019-02-26T01:57:21.978Z,5.67
2019-02-26T01:59:51.704Z,5.13
2019-02-26T02:02:24.787Z,4.47
2019-02-26T02:04:52.597Z,4.80
2019-02-26T02:07:25.947Z,4.90
2019-02-26T02:09:55.647Z,4.83
2019-02-26T02:12:29.519Z,4.37
2019-02-26T02:14:57.069Z,4.73
2019-02-26T02:17:28.689Z,4.23
2019-02-26T02:19:57.841Z,3.30
2019-02-26T02:22:27.072Z,4.47
2019-02-26T02:24:56.278Z,3.83
2019-02-26T02:27:28.121Z,4.80
2019-02-26T02:29:57.778Z,5.00
2019-02-26T02:32:29.650Z,5.30
2019-02-26T02:35:03.446Z,5.23
2019-02-26T02:37:31.821Z,5.50
2019-02-26T02:40:00.982Z,5.33
2019-02-26T02:42:30.939Z,4.83
2019-02-26T02:45:00.238Z,5.10
2019-02-26T02:47:31.650Z,5.20
2019-02-26T02:50:02.993Z,4.97
2019-02-26T02:52:35.136Z,5.80
2019-02-26T02:55:04.584Z,5.13
2019-02-26T02:57:35.733Z,5.30
2019-02-26T03:00:08.542Z,5.27
2019-02-26T03:02:42.858Z,5.23
2019-02-26T03:05:10.132Z,5.23
2019-02-26T03:07:42.045Z,5.17
2019-02-26T03:10:12.139Z,5.03
2019-02-26T03:12:44.090Z,4.50
2019-02-26T03:15:13.818Z,4.80
2019-02-26T03:17:43.105Z,5.10
2019-02-26T03:20:12.427Z,5.37
2019-02-26T03:22:46.119Z,4.10
2019-02-26T03:25:14.909Z,4.40
2019-02-26T03:27:44.766Z,4.70
2019-02-26T03:30:26.525Z,5.10
2019-02-26T03:32:52.148Z,4.70
2019-02-26T03:35:23.042Z,4.50
2019-02-26T03:37:54.525Z,4.47
2019-02-26T03:40:24.214Z,4.60
2019-02-26T03:42:54.497Z,4.83
2019-02-26T03:45:25.252Z,5.10
2019-02-26T03:47:55.456Z,4.70
2019-02-26T03:50:27.166Z,3.97
2019-02-26T03:52:56.598Z,4.77
2019-02-26T03:55:26.577Z,4.30
2019-02-26T03:57:57.133Z,4.43
2019-02-26T04:00:27.568Z,3.80
2019-02-26T04:02:57.914Z,4.30
2019-02-26T04:05:27.235Z,4.40
2019-02-26T04:07:59.525Z,4.07
2019-02-26T04:10:28.029Z,4.03
2019-02-26T04:12:58.207Z,3.93
2019-02-26T04:15:31.025Z,3.93
2019-02-26T04:17:59.117Z,4.00
2019-02-26T04:20:28.949Z,4.23
2019-02-26T04:22:58.947Z,5.03
2019-02-26T04:25:39.797Z,4.23
2019-02-26T04:28:13.098Z,3.50
2019-02-26T04:31:16.817Z,3.43
2019-02-26T04:34:34.153Z,4.20
2019-02-26T04:37:44.249Z,5.00
2019-02-26T04:40:57.624Z,4.23
2019-02-26T04:43:41.949Z,2.73
2019-02-26T04:46:45.229Z,2.53
2019-02-26T04:49:14.760Z,2.70
2019-02-26T04:51:45.041Z,4.20
2019-02-26T04:54:21.150Z,3.10
2019-02-26T04:56:48.101Z,3.10
2019-02-26T04:59:17.738Z,3.50
2019-02-26T05:01:49.090Z,3.40
2019-02-26T05:04:18.725Z,3.77
2019-02-26T05:06:48.645Z,3.33
2019-02-26T05:09:17.930Z,3.37
2019-02-26T05:11:47.769Z,3.90
2019-02-26T05:14:22.927Z,3.30
2019-02-26T05:16:49.444Z,3.80
2019-02-26T05:19:21.502Z,3.53
2019-02-26T05:21:50.195Z,3.13
2019-02-26T05:24:21.823Z,3.27
2019-02-26T05:26:50.384Z,3.50
2019-02-26T05:29:19.524Z,3.27
2019-02-26T05:31:48.877Z,3.37
2019-02-26T05:34:20.627Z,3.63
2019-02-26T05:36:48.916Z,3.57
2019-02-26T05:39:21.059Z,3.70
2019-02-26T05:41:52.256Z,3.80
2019-02-26T05:44:20.826Z,4.13
2019-02-26T05:46:52.638Z,3.57
2019-02-26T05:49:21.557Z,4.17
2019-02-26T05:51:53.331Z,4.00
2019-02-26T05:54:24.374Z,3.83
2019-02-26T05:56:53.983Z,3.83
2019-02-26T05:59:23.941Z,3.67
2019-02-26T06:01:55.936Z,3.63
2019-02-26T06:04:24.744Z,4.10
2019-02-26T06:06:56.383Z,4.20
2019-02-26T06:09:29.869Z,4.47
2019-02-26T06:11:57.796Z,4.13
2019-02-26T06:14:28.155Z,4.27
2019-02-26T06:16:59.048Z,4.77
2019-02-26T06:19:45.183Z,4.40
2019-02-26T06:22:17.312Z,4.40
2019-02-26T06:24:46.010Z,3.93
2019-02-26T06:27:18.967Z,4.03
2019-02-26T06:29:47.122Z,4.50
2019-02-26T06:32:16.588Z,4.53
2019-02-26T06:34:45.785Z,4.47
2019-02-26T06:37:18.208Z,4.53
2019-02-26T06:39:50.574Z,4.00
2019-02-26T06:42:18.404Z,5.00
2019-02-26T06:44:49.436Z,4.80
2019-02-26T06:47:20.958Z,4.40
2019-02-26T06:49:52.575Z,4.70
2019-02-26T06:52:21.542Z,5.27
2019-02-26T06:54:54.711Z,4.73
2019-02-26T06:57:22.492Z,5.20
2019-02-26T06:59:55.141Z,5.77
2019-02-26T07:02:28.285Z,5.47
2019-02-26T07:04:55.593Z,5.27
2019-02-26T07:07:25.557Z,5.90
2019-02-26T07:09:57.494Z,5.43
2019-02-26T07:12:26.560Z,5.83
2019-02-26T07:14:57.958Z,5.23
2019-02-26T07:17:26.887Z,4.93
2019-02-26T07:19:58.447Z,5.70
2019-02-26T07:22:29.110Z,4.90
2019-02-26T07:24:59.259Z,4.93
2019-02-26T07:27:31.392Z,4.60
2019-02-26T07:30:00.747Z,4.60
2019-02-26T07:32:30.035Z,5.67
2019-02-26T07:34:59.885Z,6.30
2019-02-26T07:37:31.460Z,6.20
2019-02-26T07:40:03.251Z,6.90
2019-02-26T07:42:36.645Z,5.20
2019-02-26T07:45:14.269Z,5.80
2019-02-26T07:47:36.400Z,5.07
2019-02-26T07:50:06.794Z,4.70
2019-02-26T07:52:37.021Z,4.33
2019-02-26T07:55:09.177Z,4.53
2019-02-26T07:57:43.619Z,4.43
2019-02-26T08:00:15.366Z,4.53
2019-02-26T08:02:45.278Z,4.10
2019-02-26T08:05:17.029Z,4.53
2019-02-26T08:07:48.085Z,4.43
2019-02-26T08:10:19.425Z,4.27
2019-02-26T08:12:48.571Z,4.33
2019-02-26T08:15:17.889Z,4.37
2019-02-26T08:17:50.194Z,3.63
2019-02-26T08:20:18.478Z,3.43
2019-02-26T08:22:51.408Z,4.00
2019-02-26T08:25:20.989Z,4.07
2019-02-26T08:27:52.179Z,4.20
2019-02-26T08:30:24.205Z,4.07
2019-02-26T08:32:56.098Z,4.00
2019-02-26T08:35:25.794Z,4.13
2019-02-26T08:37:55.710Z,4.07
2019-02-26T08:40:25.678Z,3.90
2019-02-26T08:42:54.977Z,3.50
2019-02-26T08:45:25.837Z,4.17
2019-02-26T08:47:55.377Z,3.77
2019-02-26T08:50:28.496Z,3.70
2019-02-26T08:52:58.431Z,3.57
2019-02-26T08:55:27.733Z,3.60
2019-02-26T08:57:56.876Z,3.90
2019-02-26T09:00:26.830Z,3.53
2019-02-26T09:02:56.788Z,3.83
2019-02-26T09:05:28.252Z,3.17
2019-02-26T09:07:57.014Z,3.37
2019-02-26T09:10:26.251Z,3.10
2019-02-26T09:12:56.020Z,3.53
2019-02-26T09:15:25.960Z,2.90
2019-02-26T09:17:55.294Z,3.43
2019-02-26T09:20:24.653Z,3.40
2019-02-26T09:22:56.270Z,3.97
2019-02-26T09:25:28.171Z,3.43
2019-02-26T09:27:55.801Z,3.60
2019-02-26T09:30:24.953Z,3.57
2019-02-26T09:32:54.836Z,3.60
2019-02-26T09:35:28.287Z,4.17
2019-02-26T09:38:00.085Z,3.57
2019-02-26T09:40:29.220Z,4.13
2019-02-26T09:43:00.099Z,3.57
2019-02-26T09:45:30.366Z,3.80
2019-02-26T09:48:01.276Z,4.03
2019-02-26T09:50:31.294Z,3.70
2019-02-26T09:53:01.251Z,3.93
2019-02-26T09:55:30.844Z,3.63
2019-02-26T09:58:00.050Z,4.23
2019-02-26T10:00:29.690Z,3.37
2019-02-26T10:02:59.115Z,3.13
2019-02-26T10:05:28.557Z,3.37
2019-02-26T10:07:59.890Z,3.10
2019-02-26T10:10:31.230Z,3.27
2019-02-26T10:13:02.921Z,3.43
2019-02-26T10:15:32.253Z,2.70
2019-02-26T10:18:04.843Z,3.77
2019-02-26T10:20:34.344Z,3.47
2019-02-26T10:23:06.396Z,3.40
2019-02-26T10:25:38.585Z,3.87
2019-02-26T10:28:09.644Z,4.10
2019-02-26T10:30:41.597Z,3.93
2019-02-26T10:33:10.216Z,3.37
2019-02-26T10:35:41.982Z,3.30
2019-02-26T10:38:11.723Z,3.73
2019-02-26T10:40:52.873Z,3.90
2019-02-26T10:43:12.008Z,4.10
2019-02-26T10:45:44.657Z,3.73
2019-02-26T10:48:15.620Z,3.70
2019-02-26T10:50:46.963Z,2.87
2019-02-26T10:53:19.353Z,2.93
2019-02-26T10:55:46.983Z,3.23
2019-02-26T10:58:16.998Z,3.67
2019-02-26T11:00:50.644Z,3.63
2019-02-26T11:03:20.269Z,3.30
2019-02-26T11:05:52.188Z,3.97
2019-02-26T11:08:23.658Z,3.30
2019-02-26T11:10:52.450Z,3.00
2019-02-26T11:13:25.359Z,3.47
2019-02-26T11:15:56.666Z,3.40
2019-02-26T11:18:25.026Z,3.17
2019-02-26T11:20:56.123Z,3.40
2019-02-26T11:23:31.021Z,3.73
2019-02-26T11:25:57.034Z,3.93
2019-02-26T11:28:29.743Z,3.83
2019-02-26T11:30:57.711Z,3.77
2019-02-26T11:33:27.037Z,3.60
2019-02-26T11:35:56.812Z,3.70
2019-02-26T11:38:26.802Z,3.77
2019-02-26T11:40:56.138Z,3.23
2019-02-26T11:43:28.968Z,3.70
2019-02-26T11:45:59.087Z,4.13
2019-02-26T11:48:32.707Z,3.97
2019-02-26T11:51:01.491Z,3.77
2019-02-26T11:53:30.953Z,3.37
2019-02-26T11:56:02.073Z,3.17
2019-02-26T11:58:31.766Z,2.60
2019-02-26T12:01:03.081Z,2.90
2019-02-26T12:03:36.161Z,2.73
2019-02-26T12:06:06.804Z,3.27
2019-02-26T12:08:37.120Z,3.33
2019-02-26T12:11:11.240Z,3.20
2019-02-26T12:13:39.523Z,2.60
2019-02-26T12:16:09.681Z,2.23
2019-02-26T12:18:41.494Z,2.20
2019-02-26T12:21:12.867Z,2.40
2019-02-26T12:23:44.153Z,2.70
2019-02-26T12:26:13.693Z,2.30
2019-02-26T12:28:44.050Z,2.80
2019-02-26T12:31:13.518Z,3.03
2019-02-26T12:33:43.359Z,2.50
2019-02-26T12:36:13.230Z,2.87
2019-02-26T12:38:42.573Z,2.50
2019-02-26T12:41:15.589Z,2.83
2019-02-26T12:43:46.353Z,2.60
2019-02-26T12:46:15.768Z,2.53
2019-02-26T12:48:47.727Z,2.97
2019-02-26T12:51:16.483Z,2.43
2019-02-26T12:53:49.200Z,2.87
2019-02-26T12:56:17.453Z,2.80
2019-02-26T12:58:48.474Z,3.30
2019-02-26T13:01:18.254Z,3.17
2019-02-26T13:03:53.884Z,2.77
2019-02-26T13:06:19.487Z,2.93
2019-02-26T13:08:50.655Z,2.43
2019-02-26T13:11:21.113Z,2.70
2019-02-26T13:13:53.355Z,3.03
2019-02-26T13:16:21.821Z,2.60
2019-02-26T13:21:23.185Z,2.37
2019-02-26T13:23:52.459Z,2.47
2019-02-26T13:26:22.442Z,1.83
2019-02-26T13:28:55.492Z,1.90
2019-02-26T13:31:23.581Z,2.00
2019-02-26T13:33:52.829Z,2.07
2019-02-26T13:36:22.758Z,2.33
2019-02-26T13:38:52.538Z,2.50
2019-02-26T13:41:29.609Z,3.10
2019-02-26T13:43:52.697Z,2.80
2019-02-26T13:46:22.377Z,3.20
2019-02-26T13:48:51.606Z,2.63
2019-02-26T13:51:20.869Z,2.63
2019-02-26T13:53:50.211Z,3.13
2019-02-26T13:56:19.590Z,3.37
2019-02-26T13:58:49.502Z,2.90
2019-02-26T14:01:19.863Z,2.67
2019-02-26T14:03:49.845Z,2.97
2019-02-26T14:06:19.793Z,2.30
2019-02-26T14:08:49.108Z,2.70
2019-02-26T14:11:18.973Z,2.17
2019-02-26T14:13:48.310Z,1.93
2019-02-26T14:16:17.555Z,1.70
2019-02-26T14:18:48.227Z,1.60
2019-02-26T14:21:17.710Z,1.80
2019-02-26T14:23:46.954Z,2.00
2019-02-26T14:26:16.177Z,1.87
2019-02-26T14:28:46.009Z,2.03
2019-02-26T14:31:15.953Z,2.53
2019-02-26T14:33:45.287Z,3.00
2019-02-26T14:36:15.297Z,2.60
2019-02-26T14:38:45.405Z,2.20
2019-02-26T14:41:15.547Z,2.60
2019-02-26T14:43:45.086Z,2.70
2019-02-26T14:46:15.001Z,2.93
2019-02-26T14:48:44.323Z,2.93
2019-02-26T14:51:13.553Z,3.07
2019-02-26T14:53:43.302Z,3.50
2019-02-26T14:56:13.266Z,3.27
2019-02-26T14:58:43.193Z,3.23
2019-02-26T15:01:13.112Z,2.77
2019-02-26T15:03:43.070Z,2.40
2019-02-26T15:06:13.334Z,2.50
2019-02-26T15:08:43.299Z,2.70
2019-02-26T15:11:13.235Z,3.20
2019-02-26T15:13:43.156Z,3.10
2019-02-26T15:16:13.286Z,3.80
2019-02-26T15:18:42.634Z,3.87
2019-02-26T15:21:12.563Z,3.40
2019-02-26T15:23:41.869Z,4.10
2019-02-26T15:26:11.761Z,3.47
2019-02-26T15:28:41.990Z,3.57
2019-02-26T15:31:12.110Z,3.50
2019-02-26T15:33:41.396Z,3.03
2019-02-26T15:36:10.834Z,3.03
2019-02-26T15:38:40.598Z,3.43
2019-02-26T15:41:10.712Z,2.97
2019-02-26T15:43:40.433Z,2.90
2019-02-26T15:46:10.257Z,3.10
2019-02-26T15:48:40.320Z,3.47
2019-02-26T15:51:14.296Z,3.07
2019-02-26T15:53:42.111Z,3.37
2019-02-26T15:56:13.842Z,3.20
2019-02-26T15:58:43.166Z,2.87
2019-02-26T16:01:15.191Z,2.87
2019-02-26T16:03:44.076Z,3.10
2019-02-26T16:06:17.089Z,3.27
2019-02-26T16:08:47.035Z,3.40
2019-02-26T16:11:16.329Z,2.93
2019-02-26T16:13:46.570Z,2.90
2019-02-26T16:16:15.918Z,3.17
2019-02-26T16:18:45.160Z,2.97
2019-02-26T16:21:14.375Z,3.00
2019-02-26T16:23:44.155Z,3.20
2019-02-26T16:26:13.460Z,3.10
2019-02-26T16:28:43.327Z,3.50
2019-02-26T16:31:13.228Z,3.00
2019-02-26T16:33:46.527Z,3.47
2019-02-26T16:36:14.110Z,2.80
2019-02-26T16:38:44.165Z,3.53
2019-02-26T16:41:13.455Z,3.20
2019-02-26T16:43:43.328Z,3.40
2019-02-26T16:46:12.650Z,4.13
2019-02-26T16:48:42.134Z,3.40
2019-02-26T16:51:11.954Z,3.20
2019-02-26T16:53:41.573Z,3.47
2019-02-26T16:56:11.705Z,4.30
2019-02-26T16:58:41.365Z,3.73
2019-02-26T17:01:11.387Z,4.40
2019-02-26T17:03:41.373Z,3.90
2019-02-26T17:06:10.886Z,4.20
2019-02-26T17:08:40.167Z,4.10
2019-02-26T17:11:13.300Z,3.73
2019-02-26T17:13:43.447Z,3.97
2019-02-26T17:16:12.465Z,3.80
2019-02-26T17:18:42.881Z,4.20
2019-02-26T17:21:13.356Z,4.00
2019-02-26T17:23:44.854Z,4.37
2019-02-26T17:26:14.921Z,4.93
2019-02-26T17:28:44.838Z,5.30
2019-02-26T17:31:14.753Z,5.40
2019-02-26T17:33:44.690Z,6.23
2019-02-26T17:36:14.925Z,6.37
2019-02-26T17:38:44.780Z,7.70
2019-02-26T17:41:14.714Z,5.73
2019-02-26T17:43:44.088Z,5.00
2019-02-26T17:46:13.285Z,4.60
2019-02-26T17:48:43.757Z,5.33
2019-02-26T17:51:13.815Z,5.53
2019-02-26T17:53:43.767Z,5.40
2019-02-26T17:56:13.093Z,6.13
2019-02-26T17:58:43.963Z,6.57
2019-02-26T18:01:14.672Z,6.03
2019-02-26T18:03:45.313Z,5.07
2019-02-26T18:06:14.937Z,6.20
2019-02-26T18:08:44.959Z,5.80
2019-02-26T18:11:14.260Z,5.87
2019-02-26T18:13:44.177Z,6.23
2019-02-26T18:16:14.142Z,6.73
2019-02-26T18:18:43.513Z,7.10
2019-02-26T18:21:13.376Z,6.50
2019-02-26T18:23:43.333Z,6.30
2019-02-26T18:26:12.719Z,5.83
2019-02-26T18:28:42.772Z,5.73
2019-02-26T18:31:12.061Z,5.47
2019-02-26T18:33:42.001Z,6.43
2019-02-26T18:36:12.170Z,6.60
2019-02-26T18:38:42.105Z,6.73
2019-02-26T18:41:12.019Z,6.57
2019-02-26T18:43:41.285Z,6.70
2019-02-26T18:46:10.546Z,6.43
2019-02-26T18:48:39.785Z,5.97
2019-02-26T18:51:09.274Z,6.83
2019-02-26T18:53:38.527Z,6.33
2019-02-26T18:56:08.005Z,7.03
2019-02-26T18:58:37.860Z,6.80
2019-02-26T19:01:07.837Z,7.07
2019-02-26T19:03:39.322Z,6.67
2019-02-26T19:06:09.379Z,7.37
2019-02-26T19:08:39.384Z,7.13
2019-02-26T19:11:10.050Z,6.30
2019-02-26T19:13:39.343Z,7.33
2019-02-26T19:16:09.217Z,6.80
2019-02-26T19:18:38.578Z,6.17
2019-02-26T19:21:08.526Z,6.67
2019-02-26T19:23:38.466Z,6.90
2019-02-26T19:26:08.405Z,8.67
2019-02-26T19:28:37.732Z,8.33
2019-02-26T19:31:09.360Z,8.13
2019-02-26T19:33:38.437Z,9.20
2019-02-26T19:36:07.901Z,8.40
2019-02-26T19:38:37.756Z,8.10
2019-02-26T19:41:12.446Z,7.53
2019-02-26T19:43:41.280Z,6.90
2019-02-26T19:46:11.167Z,9.20
2019-02-26T19:48:40.577Z,6.83
2019-02-26T19:51:10.437Z,7.30
2019-02-26T19:53:39.670Z,7.90
2019-02-26T19:56:09.471Z,7.83
2019-02-26T19:58:40.596Z,6.03
2019-02-26T20:01:10.338Z,6.43
2019-02-26T20:03:40.743Z,6.03
2019-02-26T20:06:10.790Z,6.13
2019-02-26T20:08:40.095Z,6.13
2019-02-26T20:11:10.183Z,6.17
2019-02-26T20:13:42.166Z,6.93
2019-02-26T20:16:11.070Z,7.57
2019-02-26T20:18:40.436Z,6.90
2019-02-26T20:21:10.300Z,6.20
2019-02-26T20:23:41.861Z,6.63
2019-02-26T20:26:16.160Z,6.93
2019-02-26T20:28:42.971Z,7.87
2019-02-26T20:31:12.925Z,7.67
2019-02-26T20:33:42.270Z,7.80
2019-02-26T20:36:11.507Z,8.07
2019-02-26T20:38:40.686Z,7.97
2019-02-26T20:41:10.546Z,8.00
2019-02-26T20:43:39.866Z,8.43
2019-02-26T20:46:09.685Z,9.30
2019-02-26T20:48:39.644Z,7.07
2019-02-26T20:51:08.854Z,7.07
2019-02-26T20:53:38.976Z,5.67
2019-02-26T20:56:08.968Z,5.93
2019-02-26T20:58:38.205Z,5.97
2019-02-26T21:01:07.367Z,5.10
2019-02-26T21:03:36.630Z,5.73
2019-02-26T21:06:06.852Z,5.53
2019-02-26T21:08:36.263Z,7.03
2019-02-26T21:11:06.112Z,6.80
2019-02-26T21:13:36.035Z,6.00
2019-02-26T21:16:05.495Z,6.23
2019-02-26T21:18:35.366Z,5.97
2019-02-26T21:21:04.709Z,5.37
2019-02-26T21:23:33.973Z,5.73
2019-02-26T21:26:03.401Z,5.23
2019-02-26T21:28:37.526Z,5.10
2019-02-26T21:31:07.513Z,4.73
2019-02-26T21:33:36.772Z,5.00
2019-02-26T21:36:06.504Z,4.83
2019-02-26T21:38:38.593Z,4.13
2019-02-26T21:41:06.686Z,4.50
2019-02-26T21:43:35.862Z,4.90
2019-02-26T21:46:05.643Z,4.30
2019-02-26T21:48:36.697Z,4.30
2019-02-26T21:51:06.893Z,4.80
2019-02-26T21:53:36.194Z,4.10
2019-02-26T21:56:06.015Z,4.33
2019-02-26T21:58:35.954Z,4.90
2019-02-26T22:01:05.254Z,4.47
2019-02-26T22:03:35.065Z,3.50
2019-02-26T22:06:05.488Z,4.40
2019-02-26T22:08:35.019Z,4.20
2019-02-26T22:11:04.886Z,4.70
2019-02-26T22:13:34.191Z,4.67
2019-02-26T22:16:04.033Z,4.10
2019-02-26T22:18:34.385Z,3.50
2019-02-26T22:21:03.683Z,5.20
2019-02-26T22:23:34.295Z,5.03
2019-02-26T22:26:04.736Z,4.40
2019-02-26T22:28:34.673Z,3.83
2019-02-26T22:31:04.499Z,4.23
2019-02-26T22:33:33.805Z,4.27
2019-02-26T22:36:03.189Z,4.33
2019-02-26T22:38:32.370Z,3.83
2019-02-26T22:41:02.292Z,4.03
2019-02-26T22:43:32.786Z,4.20
2019-02-26T22:46:02.040Z,3.53
2019-02-26T22:48:31.801Z,4.00
2019-02-26T22:51:01.022Z,3.73
2019-02-26T22:53:30.162Z,4.13
2019-02-26T22:56:00.073Z,4.00
2019-02-26T22:58:30.193Z,3.87
2019-02-26T23:01:30.304Z,4.07
2019-02-26T23:03:54.523Z,4.70
2019-02-26T23:06:23.833Z,3.90
2019-02-26T23:08:53.745Z,4.30
2019-02-26T23:11:23.670Z,5.00
2019-02-26T23:13:54.187Z,4.40
2019-02-26T23:16:23.790Z,4.40
2019-02-26T23:18:54.273Z,4.13
2019-02-26T23:21:23.984Z,4.63
2019-02-26T23:23:54.917Z,5.40
2019-02-26T23:26:24.353Z,4.67
2019-02-26T23:28:54.933Z,3.97
2019-02-26T23:31:24.781Z,4.03
2019-02-26T23:33:54.815Z,4.73
2019-02-26T23:36:25.751Z,3.93
2019-02-26T23:38:55.701Z,4.70
2019-02-26T23:41:25.544Z,3.97
2019-02-26T23:43:55.456Z,3.77
2019-02-26T23:46:24.762Z,4.00
2019-02-26T23:48:54.597Z,4.20
2019-02-26T23:51:24.529Z,4.00
2019-02-26T23:53:54.404Z,4.23
2019-02-26T23:56:23.773Z,4.33
2019-02-26T23:58:53.575Z,3.83
